Time;durP1;ratioP1;P1;durP2;ratioP2;P2;SDS_P1;SDS_P2;PMS_P1;PMS_P2;Temp;Humidity;BMP_temperature;BMP_pressure;BME280_temperature;BME280_humidity;BME280_pressure;Samples;Min_cycle;Max_cycle;Signal;HPM_P1;HPM_P2
2022/07/10 00:01:20;;;;;;;3.05;1.30;;;18.80;90.00;;;;;;5062415;28;20208;-37
2022/07/10 00:03:54;;;;;;;3.70;1.10;;;18.80;90.00;;;;;;5052693;28;20211;-37
2022/07/10 00:06:23;;;;;;;4.07;1.00;;;18.70;90.00;;;;;;5031091;28;20217;-37
2022/07/10 00:08:51;;;;;;;2.33;1.08;;;18.70;90.00;;;;;;5031253;28;20209;-37
2022/07/10 00:11:18;;;;;;;3.42;1.10;;;18.70;90.10;;;;;;5032748;28;20323;-37
2022/07/10 00:13:47;;;;;;;2.72;1.00;;;18.70;90.10;;;;;;5050810;28;20212;-37
2022/07/10 00:16:17;;;;;;;3.78;1.20;;;18.60;90.10;;;;;;5033072;28;20216;-40
2022/07/10 00:18:44;;;;;;;4.07;1.20;;;18.60;90.10;;;;;;5049306;28;20312;-37
2022/07/10 00:21:14;;;;;;;1.98;1.00;;;18.60;90.10;;;;;;5043021;28;20687;-37
2022/07/10 00:23:43;;;;;;;2.85;1.40;;;18.60;90.10;;;;;;5044886;28;20618;-37
2022/07/10 00:26:11;;;;;;;2.17;1.25;;;18.60;90.00;;;;;;5050783;28;20718;-37
2022/07/10 00:28:42;;;;;;;3.22;1.15;;;18.60;90.10;;;;;;5044513;28;20577;-37
2022/07/10 00:31:10;;;;;;;3.58;1.20;;;18.60;90.10;;;;;;5031540;28;20204;-37
2022/07/10 00:33:37;;;;;;;3.65;1.05;;;18.60;90.10;;;;;;5031012;28;20204;-37
2022/07/10 00:36:06;;;;;;;4.72;1.20;;;18.60;90.10;;;;;;5030297;28;20649;-37
2022/07/10 00:38:35;;;;;;;4.18;1.35;;;18.60;90.10;;;;;;5030815;28;20227;-38
2022/07/10 00:41:05;;;;;;;2.72;1.23;;;18.50;90.10;;;;;;5031082;28;20208;-37
2022/07/10 00:43:58;;;;;;;4.18;1.40;;;18.50;90.20;;;;;;5028905;28;20237;-37
2022/07/10 00:46:28;;;;;;;3.85;1.20;;;18.50;90.30;;;;;;5031097;28;20209;-37
2022/07/10 00:48:58;;;;;;;3.40;1.13;;;18.50;90.20;;;;;;5030929;28;20197;-37
2022/07/10 00:51:30;;;;;;;4.07;1.10;;;18.40;90.20;;;;;;5028642;28;20359;-37
2022/07/10 00:53:58;;;;;;;3.13;1.40;;;18.40;90.30;;;;;;5029308;28;20197;-37
2022/07/10 00:56:29;;;;;;;2.15;1.10;;;18.40;90.30;;;;;;5030580;28;20197;-34
2022/07/10 00:58:57;;;;;;;4.10;1.40;;;18.40;90.30;;;;;;5029291;28;20351;-34
2022/07/10 01:01:25;;;;;;;2.58;1.35;;;18.40;90.30;;;;;;5036407;28;20256;-34
2022/07/10 01:03:52;;;;;;;3.60;1.38;;;18.40;90.30;;;;;;5041366;28;20200;-33
2022/07/10 01:06:22;;;;;;;4.65;1.45;;;18.40;90.30;;;;;;5046244;28;20649;-34
2022/07/10 01:08:49;;;;;;;3.03;1.27;;;18.40;90.30;;;;;;5040032;28;20299;-37
2022/07/10 01:11:16;;;;;;;5.45;1.27;;;18.30;90.30;;;;;;5036105;28;20615;-37
2022/07/10 01:13:44;;;;;;;3.20;1.42;;;18.30;90.30;;;;;;5031243;28;20212;-37
2022/07/10 01:16:12;;;;;;;3.05;1.23;;;18.30;90.30;;;;;;5035491;28;20204;-37
2022/07/10 01:18:44;;;;;;;3.95;1.58;;;18.30;90.30;;;;;;5047943;28;20208;-37
2022/07/10 01:21:33;;;;;;;2.88;1.30;;;18.20;90.30;;;;;;5035801;28;20729;-37
2022/07/10 01:24:04;;;;;;;2.92;1.50;;;18.20;90.50;;;;;;5031604;28;20589;-37
2022/07/10 01:26:32;;;;;;;4.53;1.67;;;18.20;90.40;;;;;;5032742;28;20233;-38
2022/07/10 01:29:05;;;;;;;1.55;1.08;;;18.10;90.40;;;;;;5032602;28;20197;-37
2022/07/10 01:31:33;;;;;;;1.88;1.23;;;18.10;90.50;;;;;;5042062;28;20241;-37
2022/07/10 01:34:02;;;;;;;4.30;1.77;;;18.10;90.50;;;;;;5028296;28;20239;-40
2022/07/10 01:36:29;;;;;;;5.65;1.42;;;18.00;90.50;;;;;;5032309;28;20204;-37
2022/07/10 01:38:57;;;;;;;3.88;1.52;;;18.00;90.50;;;;;;5049470;28;20211;-37
2022/07/10 01:41:27;;;;;;;3.22;1.20;;;18.00;90.50;;;;;;5030629;28;20319;-38
2022/07/10 01:43:54;;;;;;;2.83;1.33;;;18.00;90.50;;;;;;5029266;28;20233;-37
2022/07/10 01:46:22;;;;;;;2.35;1.13;;;18.00;90.60;;;;;;5029838;28;20645;-37
2022/07/10 01:48:54;;;;;;;2.83;1.38;;;17.90;90.60;;;;;;5035776;28;20299;-37
2022/07/10 01:51:21;;;;;;;5.18;1.50;;;17.90;90.60;;;;;;5047199;28;20573;-37
2022/07/10 01:53:53;;;;;;;5.05;1.70;;;17.90;90.60;;;;;;5048368;28;20204;-37
2022/07/10 01:56:20;;;;;;;3.03;1.58;;;17.90;90.60;;;;;;5047037;28;20514;-37
2022/07/10 01:58:47;;;;;;;5.32;1.77;;;17.90;90.70;;;;;;5028591;28;20237;-37
2022/07/10 02:01:17;;;;;;;5.15;1.58;;;17.90;90.70;;;;;;5060174;28;20678;-37
2022/07/10 02:06:31;;;;;;;3.92;1.48;;;17.80;90.60;;;;;;5068899;28;20309;-37
2022/07/10 02:08:58;;;;;;;3.80;1.27;;;17.80;90.70;;;;;;5061022;28;20205;-37
2022/07/10 02:11:28;;;;;;;2.88;1.67;;;17.80;90.80;;;;;;5041525;28;20303;-37
2022/07/10 02:13:55;;;;;;;2.67;1.30;;;17.80;90.70;;;;;;5046247;28;20223;-37
2022/07/10 02:16:22;;;;;;;3.33;1.60;;;17.80;90.80;;;;;;5048665;28;20602;-37
2022/07/10 02:18:52;;;;;;;3.92;1.42;;;17.70;90.80;;;;;;5048544;28;20208;-37
2022/07/10 02:21:19;;;;;;;4.78;1.80;;;17.70;90.70;;;;;;5048375;28;20231;-37
2022/07/10 02:23:46;;;;;;;6.32;1.55;;;17.70;90.80;;;;;;5048606;28;20261;-37
2022/07/10 02:26:16;;;;;;;4.07;1.60;;;17.70;90.80;;;;;;5048748;28;20228;-36
2022/07/10 02:28:46;;;;;;;4.35;1.55;;;17.60;90.80;;;;;;5032544;28;20274;-37
2022/07/10 02:31:16;;;;;;;5.43;1.70;;;17.60;90.80;;;;;;5021636;28;20227;-37
2022/07/10 02:33:43;;;;;;;3.00;1.80;;;17.60;90.90;;;;;;5048845;28;20612;-36
2022/07/10 02:36:10;;;;;;;3.53;2.00;;;17.60;90.90;;;;;;5048142;28;20679;-37
2022/07/10 02:38:42;;;;;;;5.25;1.80;;;17.60;90.90;;;;;;5048471;28;20277;-36
2022/07/10 02:41:14;;;;;;;5.57;1.83;;;17.60;91.00;;;;;;5035319;28;20307;-36
2022/07/10 02:43:46;;;;;;;4.78;1.75;;;17.50;90.90;;;;;;5046598;28;20291;-37
2022/07/10 02:46:13;;;;;;;2.25;1.35;;;17.50;91.00;;;;;;5028919;28;20646;-36
2022/07/10 02:48:40;;;;;;;3.30;1.48;;;17.50;91.00;;;;;;5035613;28;20205;-36
2022/07/10 02:51:10;;;;;;;4.22;1.65;;;17.50;91.00;;;;;;5028384;28;20209;-36
2022/07/10 02:53:39;;;;;;;4.18;1.40;;;17.40;91.10;;;;;;5028221;28;20208;-36
2022/07/10 02:56:10;;;;;;;3.80;1.67;;;17.40;91.00;;;;;;5026953;28;20675;-37
2022/07/10 02:58:39;;;;;;;4.05;1.65;;;17.40;91.10;;;;;;5026454;28;21067;-36
2022/07/10 03:01:09;;;;;;;6.57;2.03;;;17.40;91.10;;;;;;5054353;28;20199;-36
2022/07/10 03:03:36;;;;;;;6.03;1.70;;;17.40;91.10;;;;;;5028445;28;20204;-36
2022/07/10 03:06:09;;;;;;;5.47;2.47;;;17.30;91.00;;;;;;5043888;28;20239;-37
2022/07/10 03:08:38;;;;;;;4.60;1.67;;;17.30;91.20;;;;;;5048289;28;20200;-36
2022/07/10 03:11:06;;;;;;;2.25;1.50;;;17.30;91.20;;;;;;5048284;28;20200;-37
2022/07/10 03:13:33;;;;;;;4.80;1.80;;;17.30;91.20;;;;;;5047736;28;20288;-36
2022/07/10 03:16:03;;;;;;;3.10;1.77;;;17.30;91.20;;;;;;5048000;28;20242;-36
2022/07/10 03:18:30;;;;;;;3.47;1.50;;;17.30;91.20;;;;;;5042569;28;20292;-37
2022/07/10 03:20:57;;;;;;;5.00;1.73;;;17.30;91.20;;;;;;5027891;28;20578;-36
2022/07/10 03:23:27;;;;;;;3.60;1.70;;;17.20;91.20;;;;;;5028653;28;20212;-37
2022/07/10 03:25:54;;;;;;;4.32;1.67;;;17.20;91.20;;;;;;5028132;28;20229;-36
2022/07/10 03:28:22;;;;;;;4.03;1.77;;;17.20;91.20;;;;;;5027416;28;20200;-36
2022/07/10 03:30:51;;;;;;;8.25;1.90;;;17.20;91.20;;;;;;5026697;28;20193;-37
2022/07/10 03:33:23;;;;;;;2.00;1.50;;;17.20;91.30;;;;;;5027759;28;20772;-36
2022/07/10 03:35:55;;;;;;;6.35;1.65;;;17.20;91.30;;;;;;5029499;28;20267;-36
2022/07/10 03:38:24;;;;;;;5.07;1.48;;;17.10;91.30;;;;;;5033871;28;20209;-37
2022/07/10 03:40:54;;;;;;;4.65;1.58;;;17.10;91.30;;;;;;5051662;28;20210;-36
2022/07/10 03:43:21;;;;;;;4.88;1.50;;;17.10;91.30;;;;;;5051251;28;20212;-36
2022/07/10 03:45:49;;;;;;;3.35;1.55;;;17.10;91.40;;;;;;5051567;28;20254;-37
2022/07/10 03:48:18;;;;;;;4.85;1.67;;;17.10;91.40;;;;;;5049996;28;20219;-37
2022/07/10 03:50:50;;;;;;;2.83;1.50;;;17.00;91.40;;;;;;5046539;28;20220;-36
2022/07/10 03:53:19;;;;;;;3.58;1.50;;;17.00;91.40;;;;;;5032818;28;20207;-37
2022/07/10 03:55:49;;;;;;;2.60;1.73;;;17.00;91.40;;;;;;5036953;28;20323;-37
2022/07/10 03:58:18;;;;;;;4.65;1.70;;;17.00;91.40;;;;;;5050983;28;20706;-33
2022/07/10 04:00:46;;;;;;;3.63;1.57;;;17.00;91.40;;;;;;5063613;28;20683;-34
2022/07/10 04:03:15;;;;;;;2.63;1.70;;;17.00;91.40;;;;;;5071347;28;20205;-33
2022/07/10 04:05:42;;;;;;;3.10;1.55;;;17.00;91.50;;;;;;5070774;28;20241;-34
2022/07/10 04:08:10;;;;;;;3.67;1.65;;;17.00;91.50;;;;;;5071254;28;20199;-34
2022/07/10 04:10:38;;;;;;;3.22;1.58;;;17.00;91.50;;;;;;5050429;28;20736;-33
2022/07/10 04:13:05;;;;;;;5.05;1.30;;;17.00;91.50;;;;;;5042517;28;20205;-34
2022/07/10 04:15:32;;;;;;;2.50;1.40;;;17.00;91.50;;;;;;5031232;28;20263;-33
2022/07/10 04:18:02;;;;;;;3.10;1.60;;;17.00;91.50;;;;;;5031030;28;20721;-33
2022/07/10 04:20:29;;;;;;;4.97;1.55;;;17.00;91.60;;;;;;5031367;28;20652;-34
2022/07/10 04:22:56;;;;;;;3.15;1.50;;;17.00;91.50;;;;;;5031321;28;20200;-33
2022/07/10 04:25:24;;;;;;;5.30;1.92;;;17.00;91.60;;;;;;5030971;28;20237;-33
2022/07/10 04:27:51;;;;;;;4.75;1.60;;;17.00;91.60;;;;;;5039709;28;20236;-33
2022/07/10 04:30:21;;;;;;;2.93;1.50;;;17.00;91.60;;;;;;5040536;28;20209;-33
2022/07/10 04:32:48;;;;;;;7.93;1.70;;;17.00;91.60;;;;;;5030871;28;20196;-34
2022/07/10 04:35:15;;;;;;;4.35;1.60;;;17.00;91.60;;;;;;5030546;28;20204;-34
2022/07/10 04:37:42;;;;;;;4.47;1.67;;;17.00;91.60;;;;;;5029354;28;20201;-33
2022/07/10 04:40:10;;;;;;;3.03;1.48;;;17.00;91.60;;;;;;5030798;28;20473;-34
2022/07/10 04:42:37;;;;;;;3.15;1.60;;;17.00;91.60;;;;;;5030917;28;20193;-33
2022/07/10 04:45:13;;;;;;;2.65;1.30;;;17.10;91.70;;;;;;5031360;28;20232;-33
2022/07/10 04:47:40;;;;;;;2.58;1.50;;;17.10;91.70;;;;;;5042724;28;20290;-34
2022/07/10 04:50:10;;;;;;;3.63;1.40;;;17.10;91.70;;;;;;5050051;28;20566;-33
2022/07/10 04:52:37;;;;;;;4.15;1.30;;;17.10;91.70;;;;;;5050130;28;20202;-34
2022/07/10 04:55:05;;;;;;;3.72;1.20;;;17.20;91.70;;;;;;5050261;28;20212;-33
2022/07/10 04:57:34;;;;;;;2.08;1.33;;;17.20;91.70;;;;;;5041222;28;20229;-34
2022/07/10 05:00:06;;;;;;;4.00;1.35;;;17.20;91.70;;;;;;5049912;28;20753;-33
2022/07/10 05:02:33;;;;;;;3.30;1.40;;;17.30;91.80;;;;;;5030424;28;20214;-33
2022/07/10 05:05:00;;;;;;;4.57;1.40;;;17.30;91.80;;;;;;5043936;28;20267;-33
2022/07/10 05:07:32;;;;;;;4.47;1.50;;;17.30;91.80;;;;;;5050212;28;20224;-33
2022/07/10 05:10:00;;;;;;;3.42;1.48;;;17.40;91.90;;;;;;5050376;28;20332;-34
2022/07/10 05:12:34;;;;;;;2.75;1.40;;;17.40;91.90;;;;;;5048378;28;20204;-33
2022/07/10 05:15:04;;;;;;;4.60;1.50;;;17.40;91.90;;;;;;5050158;28;20197;-33
2022/07/10 05:17:34;;;;;;;2.88;1.50;;;17.40;91.90;;;;;;5044396;28;20680;-34
2022/07/10 05:20:01;;;;;;;4.15;1.40;;;17.50;92.00;;;;;;5029599;28;20255;-34
2022/07/10 05:22:30;;;;;;;2.60;1.38;;;17.50;92.00;;;;;;5030566;28;20221;-33
2022/07/10 05:24:57;;;;;;;3.40;1.52;;;17.50;92.00;;;;;;5029876;28;20247;-34
2022/07/10 05:27:25;;;;;;;3.33;1.30;;;17.60;92.00;;;;;;5029651;28;20331;-34
2022/07/10 05:29:54;;;;;;;3.17;1.30;;;17.60;92.10;;;;;;5033733;28;20227;-34
2022/07/10 05:32:25;;;;;;;3.83;1.45;;;17.70;92.10;;;;;;5049952;28;20200;-33
2022/07/10 05:34:52;;;;;;;4.32;1.55;;;17.70;92.10;;;;;;5048614;28;20210;-34
2022/07/10 05:37:24;;;;;;;4.10;1.40;;;17.70;92.10;;;;;;5045962;28;20594;-34
2022/07/10 05:39:51;;;;;;;2.83;1.42;;;17.70;92.20;;;;;;5029739;28;20340;-34
2022/07/10 05:42:21;;;;;;;2.30;1.50;;;17.80;92.30;;;;;;5029144;28;20213;-33
2022/07/10 05:44:50;;;;;;;3.05;1.40;;;17.80;92.20;;;;;;5028221;28;20614;-34
2022/07/10 05:47:17;;;;;;;3.15;1.10;;;17.80;92.20;;;;;;5029341;28;20228;-34
2022/07/10 05:49:44;;;;;;;6.22;1.40;;;17.90;92.30;;;;;;5039221;28;20264;-34
2022/07/10 05:52:12;;;;;;;2.80;1.30;;;17.90;92.30;;;;;;5029951;28;20212;-34
2022/07/10 05:54:39;;;;;;;4.15;1.52;;;18.00;92.40;;;;;;5033763;28;20291;-34
2022/07/10 05:57:09;;;;;;;2.67;1.50;;;18.00;92.40;;;;;;5047347;28;20220;-34
2022/07/10 05:59:36;;;;;;;3.90;1.30;;;18.10;92.50;;;;;;5051184;28;20303;-33
2022/07/10 06:02:06;;;;;;;3.03;1.27;;;18.10;92.40;;;;;;5067745;28;20206;-33
2022/07/10 06:04:33;;;;;;;6.18;1.77;;;18.20;92.50;;;;;;5069262;28;20207;-34
2022/07/10 06:07:03;;;;;;;4.20;1.40;;;18.20;92.50;;;;;;5068367;28;20222;-34
2022/07/10 06:09:33;;;;;;;4.50;1.33;;;18.20;92.50;;;;;;5039548;28;20749;-34
2022/07/10 06:12:01;;;;;;;3.67;1.60;;;18.30;92.60;;;;;;5029593;28;20207;-34
2022/07/10 06:14:30;;;;;;;3.15;1.25;;;18.40;92.60;;;;;;5027282;28;20217;-34
2022/07/10 06:16:59;;;;;;;4.18;1.20;;;18.40;92.60;;;;;;5028871;28;20675;-34
2022/07/10 06:19:27;;;;;;;4.90;1.17;;;18.50;92.70;;;;;;5028801;28;20213;-34
2022/07/10 06:24:42;;;;;;;2.40;0.98;;;18.60;92.80;;;;;;5028931;28;20201;-34
2022/07/10 06:27:09;;;;;;;3.80;1.30;;;18.60;92.80;;;;;;5028898;28;20260;-34
2022/07/10 06:29:37;;;;;;;4.75;1.35;;;18.60;92.80;;;;;;5041152;28;20212;-34
2022/07/10 06:32:05;;;;;;;4.00;1.35;;;18.70;92.80;;;;;;5048635;28;20295;-34
2022/07/10 06:34:37;;;;;;;3.45;1.15;;;18.70;92.80;;;;;;5047276;28;20203;-34
2022/07/10 06:37:04;;;;;;;2.83;1.17;;;18.80;92.90;;;;;;5046789;28;20210;-34
2022/07/10 06:39:37;;;;;;;3.70;1.60;;;18.80;92.90;;;;;;5048756;28;20238;-34
2022/07/10 06:42:05;;;;;;;95.38;27.73;;;18.90;92.90;;;;;;5047733;28;20298;-34
2022/07/10 06:44:33;;;;;;;47.72;15.43;;;18.90;92.90;;;;;;5048386;28;20208;-33
2022/07/10 06:49:48;;;;;;;14.40;4.80;;;19.00;92.90;;;;;;5042344;28;20204;-34
2022/07/10 06:52:15;;;;;;;4.05;2.05;;;19.00;92.90;;;;;;5048027;28;20203;-37
2022/07/10 06:54:43;;;;;;;7.00;1.40;;;19.10;93.00;;;;;;5048108;28;20200;-34
2022/07/10 06:57:11;;;;;;;6.03;2.00;;;19.10;93.00;;;;;;5047831;28;20323;-36
2022/07/10 06:59:38;;;;;;;6.10;2.22;;;19.20;93.10;;;;;;5050162;28;20290;-37
2022/07/10 07:02:05;;;;;;;4.50;1.20;;;19.20;93.10;;;;;;5065843;28;20197;-37
2022/07/10 07:04:33;;;;;;;3.03;1.30;;;19.30;93.10;;;;;;5028282;28;20209;-37
2022/07/10 07:07:02;;;;;;;5.82;1.73;;;19.30;93.10;;;;;;5027710;28;20585;-37
2022/07/10 07:09:29;;;;;;;2.97;1.23;;;19.40;93.10;;;;;;5028282;28;20197;-37
2022/07/10 07:11:56;;;;;;;4.90;1.70;;;19.40;93.10;;;;;;5026460;28;20197;-37
2022/07/10 07:14:23;;;;;;;2.95;1.27;;;19.40;93.20;;;;;;5026372;28;20239;-37
2022/07/10 07:16:58;;;;;;;3.75;1.10;;;19.50;93.30;;;;;;5028380;28;20219;-37
2022/07/10 07:19:31;;;;;;;3.88;1.30;;;19.60;93.30;;;;;;5040099;28;20204;-37
2022/07/10 07:25:02;;;;;;;2.58;1.17;;;19.60;93.20;;;;;;5045101;28;20195;-37
2022/07/10 07:27:31;;;;;;;7.03;1.50;;;19.70;93.30;;;;;;5045877;28;20256;-37
2022/07/10 07:30:06;;;;;;;7.68;1.92;;;19.70;93.30;;;;;;5048002;28;20204;-37
2022/07/10 07:32:33;;;;;;;2.97;1.15;;;19.80;93.30;;;;;;5046465;28;20216;-34
2022/07/10 07:35:01;;;;;;;2.15;1.48;;;19.80;93.30;;;;;;5028393;28;20581;-34
2022/07/10 07:37:40;;;;;;;3.20;1.17;;;19.80;93.40;;;;;;5039287;28;20235;-34
2022/07/10 07:40:14;;;;;;;2.55;1.13;;;19.90;93.50;;;;;;5047892;28;20216;-34
2022/07/10 07:42:43;;;;;;;3.13;1.00;;;20.00;93.60;;;;;;5047574;28;20325;-34
2022/07/10 07:45:13;;;;;;;5.05;1.17;;;20.00;93.60;;;;;;5046449;28;20200;-34
2022/07/10 07:47:59;;;;;;;2.47;0.90;;;20.10;93.50;;;;;;5047513;28;20228;-34
2022/07/10 07:50:31;;;;;;;2.80;1.30;;;20.20;93.60;;;;;;5046512;28;20235;-34
2022/07/10 07:53:01;;;;;;;3.67;1.00;;;20.20;93.50;;;;;;5047657;28;20579;-34
2022/07/10 07:55:29;;;;;;;5.80;1.02;;;20.30;93.40;;;;;;5027863;28;20205;-34
2022/07/10 07:57:56;;;;;;;2.58;1.05;;;20.30;93.40;;;;;;5025859;28;20275;-34
2022/07/10 08:00:26;;;;;;;5.07;1.13;;;20.20;93.30;;;;;;5046144;28;20638;-34
2022/07/10 08:02:54;;;;;;;5.72;1.83;;;20.20;93.20;;;;;;5067886;28;20219;-34
2022/07/10 08:05:23;;;;;;;3.78;1.23;;;20.20;93.20;;;;;;5067392;28;20286;-34
2022/07/10 08:08:04;;;;;;;2.67;1.10;;;20.10;93.20;;;;;;5050064;28;20710;-34
2022/07/10 08:10:32;;;;;;;3.58;1.00;;;20.10;93.30;;;;;;5030859;28;20243;-34
2022/07/10 08:13:02;;;;;;;3.08;1.10;;;20.10;93.30;;;;;;5047210;28;20203;-34
2022/07/10 08:15:30;;;;;;;1.67;1.00;;;20.00;93.30;;;;;;5047923;28;20208;-34
2022/07/10 08:18:02;;;;;;;2.70;1.10;;;20.00;93.30;;;;;;5047375;28;20298;-34
2022/07/10 08:20:30;;;;;;;3.53;1.00;;;20.00;93.30;;;;;;5033729;28;20690;-34
2022/07/10 08:22:58;;;;;;;3.83;1.02;;;20.00;93.20;;;;;;5027487;28;20209;-34
2022/07/10 08:25:29;;;;;;;4.22;1.40;;;20.00;93.20;;;;;;5034434;28;20205;-34
2022/07/10 08:28:02;;;;;;;5.93;1.65;;;20.10;93.20;;;;;;5042184;28;20260;-34
2022/07/10 08:30:29;;;;;;;2.90;1.10;;;20.10;93.20;;;;;;5031322;28;20601;-36
2022/07/10 08:32:57;;;;;;;3.03;1.00;;;20.10;93.20;;;;;;5031538;28;20216;-35
2022/07/10 08:35:24;;;;;;;3.50;1.10;;;20.10;93.20;;;;;;5030213;28;20227;-34
2022/07/10 08:37:51;;;;;;;2.05;1.10;;;20.10;93.30;;;;;;5030847;28;20275;-34
2022/07/10 08:40:21;;;;;;;4.95;1.38;;;20.10;93.30;;;;;;5029552;28;20201;-34
2022/07/10 08:42:49;;;;;;;3.63;1.08;;;20.10;93.30;;;;;;5030959;28;20753;-34
2022/07/10 08:45:16;;;;;;;1.88;1.00;;;20.10;93.30;;;;;;5039909;28;20300;-34
2022/07/10 08:47:49;;;;;;;2.55;1.00;;;20.10;93.30;;;;;;5050447;28;21082;-34
2022/07/10 08:50:17;;;;;;;3.17;1.00;;;20.20;93.40;;;;;;5050097;28;20659;-34
2022/07/10 08:53:07;;;;;;;2.40;1.27;;;20.20;93.30;;;;;;5050748;28;20402;-34
2022/07/10 08:55:40;;;;;;;2.55;1.08;;;20.20;93.40;;;;;;5048762;28;20208;-34
2022/07/10 08:58:09;;;;;;;3.00;1.10;;;20.30;93.40;;;;;;5030552;28;20233;-34
2022/07/10 09:00:41;;;;;;;2.45;1.00;;;20.30;93.30;;;;;;5052307;28;20204;-34
2022/07/10 09:03:08;;;;;;;2.28;1.13;;;20.30;93.30;;;;;;5036141;28;20242;-34
2022/07/10 09:05:38;;;;;;;3.70;0.88;;;20.40;93.40;;;;;;5030144;28;20266;-33
2022/07/10 09:08:22;;;;;;;2.60;0.70;;;20.40;93.50;;;;;;5030402;28;20231;-34
2022/07/10 09:10:50;;;;;;;3.58;1.17;;;20.50;93.60;;;;;;5028612;28;20683;-34
2022/07/10 09:13:18;;;;;;;2.58;1.02;;;20.60;93.60;;;;;;5029918;28;20229;-34
2022/07/10 09:15:49;;;;;;;3.50;1.27;;;20.70;93.70;;;;;;5037137;28;20642;-34
2022/07/10 09:18:25;;;;;;;2.70;1.60;;;20.80;93.70;;;;;;5049023;28;20720;-34
2022/07/10 09:20:53;;;;;;;4.35;1.65;;;20.80;93.70;;;;;;5049653;28;20233;-34
2022/07/10 09:23:22;;;;;;;1.88;1.33;;;20.90;93.60;;;;;;5048749;28;20207;-36
2022/07/10 09:25:52;;;;;;;2.42;0.98;;;21.00;93.70;;;;;;5032202;28;20688;-37
2022/07/10 09:28:21;;;;;;;3.17;1.17;;;21.00;93.80;;;;;;5048082;28;20664;-37
2022/07/10 09:30:53;;;;;;;2.22;1.00;;;21.10;93.80;;;;;;5045207;28;20204;-37
2022/07/10 09:33:31;;;;;;;3.20;1.20;;;21.20;93.90;;;;;;5042436;28;20624;-36
2022/07/10 09:36:09;;;;;;;2.80;1.00;;;21.30;93.90;;;;;;5040299;28;20224;-37
2022/07/10 09:38:39;;;;;;;4.88;1.50;;;21.30;93.90;;;;;;5012650;28;20200;-37
2022/07/10 09:41:21;;;;;;;4.07;1.10;;;21.40;93.90;;;;;;5030140;28;20212;-37
2022/07/10 09:44:00;;;;;;;3.78;1.45;;;21.50;94.00;;;;;;5029437;28;20217;-36
2022/07/10 09:46:38;;;;;;;4.45;1.27;;;21.50;94.10;;;;;;5029628;28;20671;-37
2022/07/10 09:49:13;;;;;;;2.63;1.52;;;21.60;94.20;;;;;;5028371;28;20713;-37
2022/07/10 09:51:45;;;;;;;2.38;1.40;;;21.60;94.20;;;;;;5028994;28;20604;-37
2022/07/10 09:54:18;;;;;;;4.82;1.70;;;21.70;94.30;;;;;;5047090;28;20228;-36
2022/07/10 09:56:47;;;;;;;4.05;1.20;;;21.80;94.40;;;;;;5048938;28;20196;-37
2022/07/10 09:59:17;;;;;;;4.45;1.10;;;21.90;94.50;;;;;;5048613;28;20316;-37
2022/07/10 10:01:49;;;;;;;2.53;1.10;;;22.00;94.60;;;;;;5027824;28;20213;-36
2022/07/10 10:04:19;;;;;;;3.58;1.40;;;22.10;94.60;;;;;;5029304;28;20193;-37
2022/07/10 10:06:53;;;;;;;4.93;1.20;;;22.20;94.60;;;;;;5029451;28;20216;-37
2022/07/10 10:09:28;;;;;;;5.13;1.48;;;22.30;94.50;;;;;;5030926;28;20226;-36
2022/07/10 10:12:04;;;;;;;2.42;1.02;;;22.40;94.50;;;;;;5048976;28;20191;-36
2022/07/10 10:14:33;;;;;;;2.22;1.00;;;22.40;94.60;;;;;;5047133;28;20982;-36
2022/07/10 10:17:02;;;;;;;4.60;1.25;;;22.50;94.60;;;;;;5047150;28;20584;-36
2022/07/10 10:22:22;;;;;;;3.00;1.33;;;22.60;94.70;;;;;;5028704;28;20220;-36
2022/07/10 10:24:50;;;;;;;2.00;1.30;;;22.70;94.70;;;;;;5029273;28;20219;-37
2022/07/10 10:27:21;;;;;;;6.25;1.50;;;22.80;94.70;;;;;;5038088;28;20216;-36
2022/07/10 10:29:49;;;;;;;2.65;1.30;;;22.80;94.80;;;;;;5047384;28;20235;-34
2022/07/10 10:32:21;;;;;;;2.25;1.20;;;22.90;94.60;;;;;;5048567;28;20730;-34
2022/07/10 10:34:58;;;;;;;2.75;1.42;;;22.90;94.60;;;;;;5048163;28;20201;-34
2022/07/10 10:37:39;;;;;;;1.50;0.93;;;23.00;94.70;;;;;;5033974;28;20204;-34
2022/07/10 10:40:09;;;;;;;2.28;1.20;;;23.00;94.70;;;;;;5044996;28;20196;-34
2022/07/10 10:42:43;;;;;;;2.05;1.10;;;23.10;95.00;;;;;;5010109;28;20204;-34
2022/07/10 10:45:34;;;;;;;4.90;1.10;;;23.10;94.90;;;;;;5026665;28;20205;-34
2022/07/10 10:48:08;;;;;;;2.45;1.00;;;23.10;94.50;;;;;;5027997;28;20220;-34
2022/07/10 10:50:56;;;;;;;3.38;1.13;;;23.20;94.50;;;;;;5044367;28;20683;-34
2022/07/10 10:53:28;;;;;;;3.28;1.20;;;23.20;94.50;;;;;;5030372;28;20211;-33
2022/07/10 10:56:05;;;;;;;2.83;1.40;;;23.20;94.50;;;;;;5046879;28;20215;-33
2022/07/10 10:58:45;;;;;;;4.47;1.50;;;23.20;94.60;;;;;;5032332;28;20246;-34
2022/07/10 11:01:25;;;;;;;3.08;1.17;;;23.30;94.50;;;;;;5040080;28;20351;-33
2022/07/10 11:04:09;;;;;;;5.32;1.40;;;23.30;94.60;;;;;;5028317;28;20221;-33
2022/07/10 11:06:40;;;;;;;2.45;1.10;;;23.40;94.60;;;;;;5027612;28;20654;-34
2022/07/10 11:09:30;;;;;;;3.22;1.60;;;23.40;94.40;;;;;;5027640;28;20208;-34
2022/07/10 11:12:09;;;;;;;1.95;1.27;;;23.50;94.40;;;;;;5027877;28;20564;-34
2022/07/10 11:14:44;;;;;;;2.72;1.33;;;23.50;94.40;;;;;;5027101;28;20243;-34
2022/07/10 11:17:12;;;;;;;3.83;1.38;;;23.50;94.40;;;;;;5026992;28;20565;-33
2022/07/10 11:19:40;;;;;;;4.18;1.65;;;23.50;94.40;;;;;;5028056;28;20209;-33
2022/07/10 11:22:19;;;;;;;4.03;1.42;;;23.50;94.20;;;;;;5047343;28;20287;-34
2022/07/10 11:25:06;;;;;;;5.07;1.70;;;23.60;94.30;;;;;;5048011;28;20220;-36
2022/07/10 11:27:52;;;;;;;3.42;1.30;;;23.60;94.10;;;;;;5045966;28;20270;-35
2022/07/10 11:30:21;;;;;;;3.90;1.45;;;23.50;94.40;;;;;;5047342;28;20239;-35
2022/07/10 11:32:50;;;;;;;2.47;1.38;;;23.60;94.40;;;;;;5047101;28;20618;-35
2022/07/10 11:35:23;;;;;;;3.58;1.50;;;23.70;94.40;;;;;;5037289;28;20651;-35
2022/07/10 11:37:52;;;;;;;3.53;1.50;;;23.70;94.50;;;;;;5010899;28;20266;-35
2022/07/10 11:40:20;;;;;;;2.08;1.30;;;23.80;94.40;;;;;;5028093;28;20205;-36
2022/07/10 11:42:55;;;;;;;3.05;1.58;;;23.80;94.40;;;;;;5027226;28;20702;-35
2022/07/10 11:45:30;;;;;;;3.90;1.60;;;23.80;94.40;;;;;;5039062;28;20204;-36
2022/07/10 11:48:03;;;;;;;3.03;1.42;;;23.80;94.10;;;;;;5028355;28;20233;-36
2022/07/10 11:50:36;;;;;;;3.30;1.80;;;23.80;94.10;;;;;;5027532;28;20295;-37
2022/07/10 11:53:06;;;;;;;3.67;1.80;;;23.70;94.10;;;;;;5027933;28;20232;-37
2022/07/10 11:55:36;;;;;;;4.25;1.40;;;23.70;94.20;;;;;;5027183;28;20208;-35
2022/07/10 11:58:16;;;;;;;2.10;1.52;;;23.70;94.10;;;;;;5028612;28;20236;-35
2022/07/10 12:01:06;;;;;;;3.60;1.63;;;23.80;94.10;;;;;;5044294;28;20748;-35
2022/07/10 12:03:38;;;;;;;2.05;1.30;;;23.80;94.10;;;;;;5051228;28;20202;-36
2022/07/10 12:06:07;;;;;;;2.30;1.50;;;23.80;94.30;;;;;;5050329;28;20220;-35
2022/07/10 12:08:47;;;;;;;2.13;1.70;;;23.80;94.40;;;;;;5047092;28;20271;-36
2022/07/10 12:11:24;;;;;;;4.47;1.70;;;23.80;94.40;;;;;;5031422;28;20636;-35
2022/07/10 12:13:53;;;;;;;3.28;1.27;;;23.90;94.50;;;;;;5030852;28;20219;-35
2022/07/10 12:16:22;;;;;;;4.10;1.30;;;23.90;94.50;;;;;;5029499;28;20203;-36
2022/07/10 12:18:51;;;;;;;5.47;1.60;;;24.00;94.50;;;;;;5029807;28;20231;-35
2022/07/10 12:21:19;;;;;;;5.65;1.73;;;24.00;94.40;;;;;;5044229;28;20266;-36
2022/07/10 12:23:48;;;;;;;3.17;1.40;;;24.10;94.30;;;;;;5035050;28;20213;-36
2022/07/10 12:26:16;;;;;;;3.00;1.50;;;24.10;94.30;;;;;;5040456;28;20232;-36
2022/07/10 12:28:55;;;;;;;2.75;1.60;;;24.10;94.30;;;;;;5048679;28;20262;-36
2022/07/10 12:31:23;;;;;;;2.75;1.23;;;24.10;94.30;;;;;;5050580;28;20199;-36
2022/07/10 12:34:01;;;;;;;2.00;1.50;;;24.10;94.30;;;;;;5050681;28;20206;-36
2022/07/10 12:36:51;;;;;;;1.85;1.40;;;24.20;94.10;;;;;;5050208;28;20195;-35
2022/07/10 12:39:24;;;;;;;2.65;1.50;;;24.20;94.30;;;;;;5049619;28;20715;-35
2022/07/10 12:42:07;;;;;;;4.13;1.70;;;24.20;94.40;;;;;;5050521;28;20303;-36
2022/07/10 12:44:41;;;;;;;1.85;1.60;;;24.30;94.40;;;;;;5030157;28;20215;-35
2022/07/10 12:47:13;;;;;;;3.92;1.70;;;24.30;94.50;;;;;;5030355;28;20693;-36
2022/07/10 12:50:06;;;;;;;3.35;1.65;;;24.40;94.50;;;;;;5030128;28;20211;-36
2022/07/10 12:52:35;;;;;;;2.72;1.50;;;24.50;94.30;;;;;;5042036;28;20216;-36
2022/07/10 12:55:09;;;;;;;2.35;1.60;;;24.50;94.30;;;;;;5049603;28;20192;-36
2022/07/10 12:58:04;;;;;;;3.85;2.03;;;24.50;94.30;;;;;;5039966;28;20327;-36
2022/07/10 13:00:44;;;;;;;2.63;1.40;;;24.50;94.30;;;;;;5051914;28;20276;-36
2022/07/10 13:03:19;;;;;;;5.07;2.03;;;24.50;94.40;;;;;;5070049;28;20700;-36
2022/07/10 13:05:46;;;;;;;3.30;1.40;;;24.50;94.20;;;;;;5068337;28;20210;-35
2022/07/10 13:08:16;;;;;;;4.10;1.83;;;24.50;94.30;;;;;;5069491;28;20223;-36
2022/07/10 13:10:45;;;;;;;2.92;1.60;;;24.50;94.30;;;;;;5033254;28;20208;-35
2022/07/10 13:13:15;;;;;;;6.13;2.00;;;24.50;94.30;;;;;;5031943;28;20288;-35
2022/07/10 13:15:56;;;;;;;2.60;1.67;;;24.50;94.20;;;;;;5048310;28;20262;-36
2022/07/10 13:18:26;;;;;;;6.13;2.00;;;24.50;94.40;;;;;;5030087;28;20208;-36